createdAt,value
2023-11-14T00:01:08.649Z,2.57
2023-11-14T00:04:45.389Z,2.63
2023-11-14T00:08:09.511Z,2.69
2023-11-14T00:11:36.149Z,2.73
2023-11-14T00:15:00.536Z,2.78
2023-11-14T00:18:24.829Z,2.84
2023-11-14T00:21:49.030Z,2.90
2023-11-14T00:25:13.222Z,2.95
2023-11-14T00:28:37.267Z,3.01
2023-11-14T00:32:01.494Z,3.06
2023-11-14T00:35:25.670Z,3.11
2023-11-14T00:38:49.667Z,3.16
2023-11-14T00:42:14.272Z,3.20
2023-11-14T00:45:39.469Z,3.25
2023-11-14T00:49:05.440Z,3.30
2023-11-14T00:52:29.508Z,3.33
2023-11-14T00:55:53.628Z,3.37
2023-11-14T00:59:17.951Z,3.42
2023-11-14T01:02:42.137Z,3.46
2023-11-14T01:06:06.884Z,3.51
2023-11-14T01:09:31.436Z,3.54
2023-11-14T01:13:00.587Z,3.57
2023-11-14T01:16:25.000Z,3.63
2023-11-14T01:19:50.264Z,3.68
2023-11-14T01:23:17.986Z,3.75
2023-11-14T01:26:42.433Z,3.80
2023-11-14T01:30:07.651Z,3.84
2023-11-14T01:33:31.782Z,3.89
2023-11-14T01:36:57.464Z,3.93
2023-11-14T01:40:21.855Z,3.95
2023-11-14T01:43:46.716Z,3.96
2023-11-14T01:47:11.513Z,3.97
2023-11-14T01:50:35.881Z,4.00
2023-11-14T01:53:59.984Z,4.02
2023-11-14T01:57:24.341Z,4.03
2023-11-14T02:00:49.003Z,4.04
2023-11-14T02:04:18.349Z,4.03
2023-11-14T02:07:42.903Z,4.04
2023-11-14T02:11:07.207Z,4.04
2023-11-14T02:14:31.501Z,4.03
2023-11-14T02:17:55.516Z,4.04
2023-11-14T02:21:19.777Z,4.07
2023-11-14T02:24:52.944Z,4.08
2023-11-14T02:28:16.999Z,4.09
2023-11-14T02:31:41.169Z,4.09
2023-11-14T02:35:05.790Z,4.08
2023-11-14T02:38:30.293Z,4.07
2023-11-14T02:41:54.334Z,4.07
2023-11-14T02:45:18.646Z,4.09
2023-11-14T02:48:42.673Z,4.08
2023-11-14T02:52:07.153Z,4.07
2023-11-14T02:55:32.154Z,4.05
2023-11-14T02:58:56.322Z,4.04
2023-11-14T03:02:20.975Z,3.98
2023-11-14T03:05:46.258Z,3.95
2023-11-14T03:09:10.420Z,3.94
2023-11-14T03:12:34.468Z,3.92
2023-11-14T03:15:58.550Z,3.91
2023-11-14T03:19:22.598Z,3.92
2023-11-14T03:22:46.748Z,3.92
2023-11-14T03:26:11.319Z,3.94
2023-11-14T03:29:36.360Z,3.96
2023-11-14T03:33:00.754Z,3.97
2023-11-14T03:36:24.894Z,4.00
2023-11-14T03:39:49.768Z,4.05
2023-11-14T03:43:13.832Z,4.10
2023-11-14T03:46:37.909Z,4.15
2023-11-14T03:50:04.259Z,4.19
2023-11-14T03:53:28.426Z,4.23
2023-11-14T03:56:52.544Z,4.25
2023-11-14T04:00:16.905Z,4.29
2023-11-14T04:03:41.062Z,4.31
2023-11-14T04:07:05.493Z,4.35
2023-11-14T04:10:32.448Z,4.39
2023-11-14T04:13:57.576Z,4.44
2023-11-14T04:17:21.786Z,4.48
2023-11-14T04:20:47.255Z,4.51
2023-11-14T04:24:11.569Z,4.55
2023-11-14T04:27:36.140Z,4.58
2023-11-14T04:31:00.300Z,4.62
2023-11-14T04:34:24.486Z,4.67
2023-11-14T04:37:53.698Z,4.72
2023-11-14T04:41:19.350Z,4.75
2023-11-14T04:44:43.710Z,4.81
2023-11-14T04:48:07.821Z,4.87
2023-11-14T04:51:31.989Z,4.94
2023-11-14T04:54:55.995Z,5.01
2023-11-14T04:58:19.999Z,5.08
2023-11-14T05:01:44.105Z,5.16
2023-11-14T05:05:08.884Z,5.23
2023-11-14T05:08:35.091Z,5.28
2023-11-14T05:11:59.150Z,5.34
2023-11-14T05:15:23.459Z,5.40
2023-11-14T05:18:47.761Z,5.46
2023-11-14T05:22:14.440Z,5.51
2023-11-14T05:25:38.524Z,5.56
2023-11-14T05:29:02.634Z,5.61
2023-11-14T05:32:27.035Z,5.67
2023-11-14T05:35:51.314Z,5.72
2023-11-14T05:39:16.161Z,5.77
2023-11-14T05:42:41.020Z,5.83
2023-11-14T05:46:05.562Z,5.88
2023-11-14T05:49:31.069Z,5.95
2023-11-14T05:52:55.953Z,6.01
2023-11-14T05:56:19.928Z,6.09
2023-11-14T05:59:44.021Z,6.18
2023-11-14T06:03:08.347Z,6.26
2023-11-14T06:06:32.738Z,6.36
2023-11-14T06:09:56.710Z,6.45
2023-11-14T06:13:20.680Z,6.54
2023-11-14T06:16:44.728Z,6.65
2023-11-14T06:20:11.248Z,6.75
2023-11-14T06:23:35.252Z,6.84
2023-11-14T06:26:59.375Z,6.92
2023-11-14T06:30:23.466Z,6.99
2023-11-14T06:33:48.081Z,7.05
2023-11-14T06:37:12.261Z,7.12
2023-11-14T06:40:36.285Z,7.19
2023-11-14T06:44:00.357Z,7.26
2023-11-14T06:47:24.521Z,7.34
2023-11-14T06:50:50.290Z,7.44
2023-11-14T06:54:15.577Z,7.53
2023-11-14T06:57:39.674Z,7.63
2023-11-14T07:01:04.930Z,7.71
2023-11-14T07:04:30.171Z,7.77
2023-11-14T07:07:56.389Z,7.85
2023-11-14T07:11:21.009Z,7.91
2023-11-14T07:14:45.091Z,7.98
2023-11-14T07:18:10.399Z,8.03
2023-11-14T07:21:34.974Z,8.08
2023-11-14T07:25:00.154Z,8.12
2023-11-14T07:28:24.390Z,8.16
2023-11-14T07:31:48.586Z,8.22
2023-11-14T07:35:12.752Z,8.28
2023-11-14T07:38:37.347Z,8.32
2023-11-14T07:42:01.474Z,8.36
2023-11-14T07:45:25.474Z,8.40
2023-11-14T07:48:50.190Z,8.45
2023-11-14T07:52:14.198Z,8.51
2023-11-14T07:55:39.748Z,8.57
2023-11-14T07:59:03.740Z,8.69
2023-11-14T08:02:27.848Z,8.81
2023-11-14T08:05:53.412Z,8.85
2023-11-14T08:09:19.206Z,8.87
2023-11-14T08:12:43.275Z,8.93
2023-11-14T08:16:07.660Z,9.01
2023-11-14T08:19:31.595Z,9.08
2023-11-14T08:22:56.123Z,9.13
2023-11-14T08:26:21.023Z,9.16
2023-11-14T08:29:45.103Z,9.18
2023-11-14T08:33:11.413Z,9.26
2023-11-14T08:36:35.782Z,9.38
2023-11-14T08:39:59.857Z,9.53
2023-11-14T08:43:24.030Z,9.65
2023-11-14T08:46:49.065Z,9.80
2023-11-14T08:50:14.267Z,9.88
2023-11-14T08:53:38.361Z,9.94
2023-11-14T08:57:03.131Z,9.99
2023-11-14T09:00:27.883Z,10.02
2023-11-14T09:03:52.701Z,10.07
2023-11-14T09:07:16.812Z,10.16
2023-11-14T09:10:40.895Z,10.28
2023-11-14T09:14:04.900Z,10.43
2023-11-14T09:17:29.688Z,10.49
2023-11-14T09:20:54.592Z,10.48
2023-11-14T09:24:18.893Z,10.60
2023-11-14T09:27:42.971Z,10.73
2023-11-14T09:31:07.849Z,10.83
2023-11-14T09:34:32.748Z,10.92
2023-11-14T09:37:58.236Z,10.98
2023-11-14T09:41:24.064Z,10.99
2023-11-14T09:44:49.458Z,11.01
2023-11-14T09:48:13.603Z,11.06
2023-11-14T09:51:40.968Z,11.08
2023-11-14T09:55:07.380Z,11.15
2023-11-14T09:58:32.195Z,11.19
2023-11-14T10:01:56.628Z,11.23
2023-11-14T10:05:21.678Z,11.31
2023-11-14T10:08:56.158Z,11.28
2023-11-14T10:12:38.816Z,11.23
2023-11-14T10:16:23.457Z,11.26
2023-11-14T10:20:06.248Z,11.34
2023-11-14T10:23:40.576Z,11.47
2023-11-14T10:27:05.502Z,11.67
2023-11-14T10:30:51.038Z,11.75
2023-11-14T10:34:33.098Z,11.78
2023-11-14T10:37:57.220Z,11.83
2023-11-14T10:41:25.912Z,11.84
2023-11-14T10:45:06.045Z,11.82
2023-11-14T10:48:30.657Z,11.96
2023-11-14T10:51:56.049Z,12.09
2023-11-14T10:55:22.666Z,12.17
2023-11-14T10:58:46.755Z,12.32
2023-11-14T11:02:12.116Z,12.51
2023-11-14T11:05:36.605Z,12.71
2023-11-14T11:09:00.857Z,12.80
2023-11-14T11:12:28.116Z,12.73
2023-11-14T11:15:55.837Z,12.63
2023-11-14T11:19:27.203Z,12.63
2023-11-14T11:23:14.706Z,12.61
2023-11-14T11:27:12.946Z,12.70
2023-11-14T11:31:15.985Z,12.87
2023-11-14T11:34:40.344Z,12.85
2023-11-14T11:38:12.951Z,12.94
2023-11-14T11:41:55.625Z,13.08
2023-11-14T11:45:39.001Z,13.05
2023-11-14T11:49:12.283Z,13.00
2023-11-14T11:52:37.078Z,13.01
2023-11-14T11:56:05.723Z,12.99
2023-11-14T11:59:29.865Z,12.99
2023-11-14T12:02:54.927Z,12.96
2023-11-14T12:06:19.508Z,12.88
2023-11-14T12:09:44.003Z,12.80
2023-11-14T12:13:10.215Z,12.73
2023-11-14T12:16:37.398Z,12.67
2023-11-14T12:20:02.792Z,12.58
2023-11-14T12:23:28.472Z,12.52
2023-11-14T12:26:52.742Z,12.54
2023-11-14T12:30:18.980Z,12.46
2023-11-14T12:33:51.746Z,12.33
2023-11-14T12:37:18.379Z,12.19
2023-11-14T12:40:42.782Z,12.12
2023-11-14T12:44:09.134Z,12.09
2023-11-14T12:47:51.164Z,12.10
2023-11-14T12:51:15.131Z,12.16
2023-11-14T12:54:39.581Z,12.21
2023-11-14T12:58:04.210Z,12.26
2023-11-14T13:01:28.903Z,12.23
2023-11-14T13:04:53.318Z,12.14
2023-11-14T13:08:17.506Z,12.05
2023-11-14T13:11:42.468Z,11.96
2023-11-14T13:15:07.559Z,11.89
2023-11-14T13:18:31.759Z,11.83
2023-11-14T13:21:55.687Z,11.85
2023-11-14T13:25:20.735Z,11.90
2023-11-14T13:28:45.161Z,11.93
2023-11-14T13:32:09.435Z,11.92
2023-11-14T13:35:33.702Z,11.93
2023-11-14T13:38:57.822Z,11.95
2023-11-14T13:42:21.814Z,12.00
2023-11-14T13:45:46.769Z,12.04
2023-11-14T13:49:11.961Z,12.08
2023-11-14T13:52:35.971Z,12.09
2023-11-14T13:56:00.571Z,12.06
2023-11-14T13:59:27.034Z,12.02
2023-11-14T14:02:51.527Z,11.97
2023-11-14T14:06:15.620Z,11.94
2023-11-14T14:09:39.764Z,11.94
2023-11-14T14:13:04.909Z,11.91
2023-11-14T14:16:28.935Z,11.87
2023-11-14T14:19:53.085Z,11.82
2023-11-14T14:23:17.153Z,11.76
2023-11-14T14:26:41.692Z,11.67
2023-11-14T14:30:07.124Z,11.55
2023-11-14T14:33:51.811Z,11.43
2023-11-14T14:37:50.895Z,11.31
2023-11-14T14:41:50.775Z,11.22
2023-11-14T14:45:49.732Z,11.11
2023-11-14T14:49:50.755Z,11.03
2023-11-14T14:53:48.813Z,10.98
2023-11-14T14:57:46.790Z,10.93
2023-11-14T15:01:45.785Z,10.89
2023-11-14T15:05:43.751Z,10.82
2023-11-14T15:09:41.809Z,10.78
2023-11-14T15:13:40.777Z,10.76
2023-11-14T15:17:38.945Z,10.72
2023-11-14T15:21:38.081Z,10.71
2023-11-14T15:25:38.760Z,10.68
2023-11-14T15:29:36.701Z,10.63
2023-11-14T15:33:35.846Z,10.59
2023-11-14T15:37:33.713Z,10.57
2023-11-14T15:41:31.732Z,10.56
2023-11-14T15:45:29.701Z,10.55
2023-11-14T15:49:29.644Z,10.56
2023-11-14T15:53:28.791Z,10.57
2023-11-14T15:57:28.041Z,10.58
2023-11-14T16:01:25.801Z,10.60
2023-11-14T16:05:23.736Z,10.57
2023-11-14T16:09:21.695Z,10.53
2023-11-14T16:13:20.196Z,10.45
2023-11-14T16:17:19.669Z,10.37
2023-11-14T16:21:17.700Z,10.29
2023-11-14T16:25:15.672Z,10.24
2023-11-14T16:29:13.693Z,10.18
2023-11-14T16:33:11.711Z,10.10
2023-11-14T16:37:09.655Z,10.01
2023-11-14T16:41:07.756Z,9.93
2023-11-14T16:45:05.661Z,9.86
2023-11-14T16:49:04.654Z,9.80
2023-11-14T16:53:02.833Z,9.75
2023-11-14T16:57:01.667Z,9.70
2023-11-14T17:00:59.698Z,9.65
2023-11-14T17:04:57.641Z,9.59
2023-11-14T17:08:55.785Z,9.55
2023-11-14T17:12:53.589Z,9.56
2023-11-14T17:16:51.727Z,9.58
2023-11-14T17:20:49.610Z,9.62
2023-11-14T17:24:47.624Z,9.66
2023-11-14T17:28:47.699Z,9.71
2023-11-14T17:32:46.770Z,9.75
2023-11-14T17:36:44.568Z,9.78
2023-11-14T17:40:42.565Z,9.79
2023-11-14T17:44:40.709Z,9.81
2023-11-14T17:48:39.670Z,9.86
2023-11-14T17:52:38.635Z,9.87
2023-11-14T17:56:36.624Z,9.91
2023-11-14T18:00:34.904Z,9.94
2023-11-14T18:04:32.683Z,9.95
2023-11-14T18:08:30.634Z,9.95
2023-11-14T18:12:29.598Z,9.93
2023-11-14T18:16:28.650Z,9.90
2023-11-14T18:20:27.617Z,9.86
2023-11-14T18:24:27.512Z,9.85
2023-11-14T18:28:25.564Z,9.82
2023-11-14T18:32:23.687Z,9.78
2023-11-14T18:36:21.522Z,9.77
2023-11-14T18:40:21.570Z,9.78
2023-11-14T18:44:21.569Z,9.79
2023-11-14T18:48:20.528Z,9.80
2023-11-14T18:52:18.556Z,9.82
2023-11-14T18:56:16.668Z,9.82
2023-11-14T19:00:14.538Z,9.84
2023-11-14T19:04:12.590Z,9.88
2023-11-14T19:08:11.548Z,9.91
2023-11-14T19:12:10.483Z,9.93
2023-11-14T19:16:11.511Z,9.96
2023-11-14T19:20:11.580Z,9.96
2023-11-14T19:24:10.582Z,9.95
2023-11-14T19:28:08.545Z,9.93
2023-11-14T19:32:06.490Z,9.91
2023-11-14T19:36:05.470Z,9.91
2023-11-14T19:40:04.585Z,9.90
2023-11-14T19:44:02.489Z,9.90
2023-11-14T19:48:00.611Z,9.92
2023-11-14T19:51:59.968Z,9.91
2023-11-14T19:55:58.409Z,9.91
2023-11-14T19:59:56.405Z,9.92
2023-11-14T20:04:03.475Z,9.93
2023-11-14T20:08:01.481Z,9.93
2023-11-14T20:12:00.578Z,9.95
2023-11-14T20:15:58.468Z,9.97
2023-11-14T20:19:56.413Z,9.97
2023-11-14T20:23:54.409Z,9.97
2023-11-14T20:27:56.472Z,9.99
2023-11-14T20:31:54.386Z,10.00
2023-11-14T20:35:52.437Z,10.00
2023-11-14T20:39:50.379Z,9.99
2023-11-14T20:43:48.452Z,10.01
2023-11-14T20:47:46.427Z,10.01
2023-11-14T20:51:44.380Z,10.00
2023-11-14T20:55:42.373Z,9.97
2023-11-14T20:59:40.378Z,9.92
2023-11-14T21:03:38.384Z,9.84
2023-11-14T21:07:36.342Z,9.76
2023-11-14T21:11:34.442Z,9.69
2023-11-14T21:15:32.471Z,9.57
2023-11-14T21:19:30.360Z,9.45
2023-11-14T21:23:28.594Z,9.34
2023-11-14T21:27:31.507Z,9.20
2023-11-14T21:31:38.017Z,9.09
2023-11-14T21:35:36.331Z,8.99
2023-11-14T21:39:35.339Z,8.92
2023-11-14T21:43:33.403Z,8.90
2023-11-14T21:47:31.392Z,8.91
2023-11-14T21:51:31.335Z,8.92
2023-11-14T21:55:30.345Z,8.93
2023-11-14T21:59:28.319Z,8.93
2023-11-14T22:03:26.373Z,8.93
2023-11-14T22:07:24.270Z,8.89
2023-11-14T22:11:22.410Z,8.84
2023-11-14T22:15:20.290Z,8.79
2023-11-14T22:19:18.285Z,8.74
2023-11-14T22:23:16.304Z,8.70
2023-11-14T22:27:14.341Z,8.67
2023-11-14T22:31:12.245Z,8.65
2023-11-14T22:35:10.313Z,8.61
2023-11-14T22:39:08.219Z,8.57
2023-11-14T22:43:06.239Z,8.55
2023-11-14T22:47:04.244Z,8.56
2023-11-14T22:51:02.292Z,8.59
2023-11-14T22:55:03.144Z,8.65
2023-11-14T22:59:02.263Z,8.72
2023-11-14T23:05:18.306Z,8.75
2023-11-14T23:09:22.215Z,8.79
2023-11-14T23:13:22.266Z,8.78
2023-11-14T23:17:21.249Z,8.73
2023-11-14T23:21:21.218Z,8.69
2023-11-14T23:25:19.214Z,8.63
2023-11-14T23:29:17.235Z,8.56
2023-11-14T23:33:15.252Z,8.49
2023-11-14T23:37:13.294Z,8.46
2023-11-14T23:41:11.182Z,8.43
2023-11-14T23:45:09.188Z,8.38
2023-11-14T23:49:07.207Z,8.32
2023-11-14T23:53:05.217Z,8.26
2023-11-14T23:57:04.179Z,8.17
